sensor_id;sensor_type;location;lat;lon;timestamp;P1;durP1;ratioP1;P2;durP2;ratioP2
8040;SDS011;4063;48.140;10.250;2022-09-16T00:00:12;15.17;;;12.10;;
8040;SDS011;4063;48.140;10.250;2022-09-16T00:02:38;15.63;;;13.57;;
8040;SDS011;4063;48.140;10.250;2022-09-16T00:05:04;16.43;;;13.03;;
8040;SDS011;4063;48.140;10.250;2022-09-16T00:07:30;13.43;;;12.00;;
8040;SDS011;4063;48.140;10.250;2022-09-16T00:09:56;16.17;;;13.27;;
8040;SDS011;4063;48.140;10.250;2022-09-16T00:12:22;15.23;;;13.63;;
8040;SDS011;4063;48.140;10.250;2022-09-16T00:14:50;17.93;;;13.30;;
8040;SDS011;4063;48.140;10.250;2022-09-16T00:17:16;18.27;;;13.37;;
8040;SDS011;4063;48.140;10.250;2022-09-16T00:19:42;16.20;;;12.90;;
8040;SDS011;4063;48.140;10.250;2022-09-16T00:22:08;17.53;;;12.53;;
8040;SDS011;4063;48.140;10.250;2022-09-16T00:24:34;13.97;;;12.23;;
8040;SDS011;4063;48.140;10.250;2022-09-16T00:27:00;14.20;;;12.67;;
8040;SDS011;4063;48.140;10.250;2022-09-16T00:29:26;15.40;;;13.80;;
8040;SDS011;4063;48.140;10.250;2022-09-16T00:31:52;15.10;;;12.70;;
8040;SDS011;4063;48.140;10.250;2022-09-16T00:34:18;18.07;;;13.47;;
8040;SDS011;4063;48.140;10.250;2022-09-16T00:36:44;14.17;;;12.67;;
8040;SDS011;4063;48.140;10.250;2022-09-16T00:39:10;13.77;;;12.03;;
8040;SDS011;4063;48.140;10.250;2022-09-16T00:41:36;19.40;;;12.17;;
8040;SDS011;4063;48.140;10.250;2022-09-16T00:44:03;14.93;;;12.43;;
8040;SDS011;4063;48.140;10.250;2022-09-16T00:49:00;16.43;;;12.50;;
8040;SDS011;4063;48.140;10.250;2022-09-16T00:51:27;13.90;;;12.10;;
8040;SDS011;4063;48.140;10.250;2022-09-16T00:53:54;15.17;;;12.00;;
8040;SDS011;4063;48.140;10.250;2022-09-16T00:56:24;15.37;;;11.47;;
8040;SDS011;4063;48.140;10.250;2022-09-16T00:58:53;17.90;;;11.60;;
8040;SDS011;4063;48.140;10.250;2022-09-16T01:01:20;11.77;;;10.63;;
8040;SDS011;4063;48.140;10.250;2022-09-16T01:03:57;165.00;;;96.73;;
8040;SDS011;4063;48.140;10.250;2022-09-16T01:06:24;59.50;;;40.83;;
8040;SDS011;4063;48.140;10.250;2022-09-16T01:08:51;28.13;;;20.50;;
8040;SDS011;4063;48.140;10.250;2022-09-16T01:11:17;24.57;;;17.10;;
8040;SDS011;4063;48.140;10.250;2022-09-16T01:13:43;17.67;;;12.80;;
8040;SDS011;4063;48.140;10.250;2022-09-16T01:16:11;13.03;;;11.73;;
8040;SDS011;4063;48.140;10.250;2022-09-16T01:21:14;13.40;;;11.83;;
8040;SDS011;4063;48.140;10.250;2022-09-16T01:28:52;15.93;;;11.70;;
8040;SDS011;4063;48.140;10.250;2022-09-16T01:31:27;13.37;;;11.97;;
8040;SDS011;4063;48.140;10.250;2022-09-16T01:34:00;17.47;;;14.07;;
8040;SDS011;4063;48.140;10.250;2022-09-16T01:36:34;19.33;;;16.23;;
8040;SDS011;4063;48.140;10.250;2022-09-16T01:41:50;18.73;;;16.43;;
8040;SDS011;4063;48.140;10.250;2022-09-16T01:47:15;27.20;;;18.70;;
8040;SDS011;4063;48.140;10.250;2022-09-16T01:52:22;25.07;;;18.83;;
8040;SDS011;4063;48.140;10.250;2022-09-16T01:54:52;24.40;;;20.03;;
8040;SDS011;4063;48.140;10.250;2022-09-16T01:57:25;23.27;;;18.40;;
8040;SDS011;4063;48.140;10.250;2022-09-16T01:59:57;23.30;;;18.53;;
8040;SDS011;4063;48.140;10.250;2022-09-16T02:02:34;23.10;;;18.17;;
8040;SDS011;4063;48.140;10.250;2022-09-16T02:05:02;26.83;;;17.37;;
8040;SDS011;4063;48.140;10.250;2022-09-16T02:07:30;28.57;;;19.87;;
8040;SDS011;4063;48.140;10.250;2022-09-16T02:09:59;25.13;;;19.50;;
8040;SDS011;4063;48.140;10.250;2022-09-16T02:12:31;21.70;;;18.60;;
8040;SDS011;4063;48.140;10.250;2022-09-16T02:14:59;27.03;;;18.23;;
8040;SDS011;4063;48.140;10.250;2022-09-16T02:17:28;25.47;;;17.77;;
8040;SDS011;4063;48.140;10.250;2022-09-16T02:20:03;21.63;;;19.23;;
8040;SDS011;4063;48.140;10.250;2022-09-16T02:22:33;20.50;;;16.67;;
8040;SDS011;4063;48.140;10.250;2022-09-16T02:25:01;23.60;;;18.83;;
8040;SDS011;4063;48.140;10.250;2022-09-16T02:27:28;22.03;;;17.60;;
8040;SDS011;4063;48.140;10.250;2022-09-16T02:29:55;22.00;;;17.83;;
8040;SDS011;4063;48.140;10.250;2022-09-16T02:32:22;23.90;;;19.27;;
8040;SDS011;4063;48.140;10.250;2022-09-16T02:34:50;23.90;;;18.57;;
8040;SDS011;4063;48.140;10.250;2022-09-16T02:37:24;21.57;;;18.27;;
8040;SDS011;4063;48.140;10.250;2022-09-16T02:39:53;26.60;;;19.57;;
8040;SDS011;4063;48.140;10.250;2022-09-16T02:42:21;23.27;;;18.77;;
8040;SDS011;4063;48.140;10.250;2022-09-16T02:44:47;25.87;;;19.60;;
8040;SDS011;4063;48.140;10.250;2022-09-16T02:54:49;26.50;;;21.00;;
8040;SDS011;4063;48.140;10.250;2022-09-16T02:57:17;27.60;;;20.83;;
8040;SDS011;4063;48.140;10.250;2022-09-16T02:59:43;27.47;;;20.30;;
8040;SDS011;4063;48.140;10.250;2022-09-16T03:02:09;25.40;;;20.00;;
8040;SDS011;4063;48.140;10.250;2022-09-16T03:04:35;26.20;;;20.93;;
8040;SDS011;4063;48.140;10.250;2022-09-16T03:07:05;23.97;;;20.40;;
8040;SDS011;4063;48.140;10.250;2022-09-16T03:09:33;26.37;;;21.20;;
8040;SDS011;4063;48.140;10.250;2022-09-16T03:12:04;24.00;;;21.47;;
8040;SDS011;4063;48.140;10.250;2022-09-16T03:20:08;27.80;;;20.33;;
8040;SDS011;4063;48.140;10.250;2022-09-16T03:28:12;23.97;;;19.17;;
8040;SDS011;4063;48.140;10.250;2022-09-16T03:30:47;27.33;;;19.20;;
8040;SDS011;4063;48.140;10.250;2022-09-16T03:33:18;23.63;;;20.47;;
8040;SDS011;4063;48.140;10.250;2022-09-16T03:35:47;23.77;;;19.80;;
8040;SDS011;4063;48.140;10.250;2022-09-16T03:38:13;21.50;;;18.83;;
8040;SDS011;4063;48.140;10.250;2022-09-16T03:40:41;25.43;;;18.80;;
8040;SDS011;4063;48.140;10.250;2022-09-16T03:43:11;26.10;;;20.43;;
8040;SDS011;4063;48.140;10.250;2022-09-16T03:45:37;30.00;;;21.10;;
8040;SDS011;4063;48.140;10.250;2022-09-16T03:48:06;29.43;;;22.67;;
8040;SDS011;4063;48.140;10.250;2022-09-16T03:50:33;27.03;;;21.43;;
8040;SDS011;4063;48.140;10.250;2022-09-16T03:52:59;29.83;;;23.00;;
8040;SDS011;4063;48.140;10.250;2022-09-16T03:55:25;31.00;;;22.17;;
8040;SDS011;4063;48.140;10.250;2022-09-16T03:57:54;23.27;;;19.90;;
8040;SDS011;4063;48.140;10.250;2022-09-16T04:00:20;25.33;;;21.13;;
8040;SDS011;4063;48.140;10.250;2022-09-16T04:02:47;25.73;;;22.00;;
8040;SDS011;4063;48.140;10.250;2022-09-16T04:05:13;27.23;;;21.33;;
8040;SDS011;4063;48.140;10.250;2022-09-16T04:07:39;25.13;;;19.67;;
8040;SDS011;4063;48.140;10.250;2022-09-16T04:10:05;28.90;;;21.47;;
8040;SDS011;4063;48.140;10.250;2022-09-16T04:12:31;24.47;;;21.57;;
8040;SDS011;4063;48.140;10.250;2022-09-16T04:14:57;24.53;;;19.07;;
8040;SDS011;4063;48.140;10.250;2022-09-16T04:17:23;28.47;;;19.80;;
8040;SDS011;4063;48.140;10.250;2022-09-16T04:19:49;27.07;;;20.20;;
8040;SDS011;4063;48.140;10.250;2022-09-16T04:22:16;22.73;;;18.63;;
8040;SDS011;4063;48.140;10.250;2022-09-16T04:24:43;26.67;;;20.70;;
8040;SDS011;4063;48.140;10.250;2022-09-16T04:27:09;24.93;;;20.27;;
8040;SDS011;4063;48.140;10.250;2022-09-16T04:29:34;28.33;;;21.93;;
8040;SDS011;4063;48.140;10.250;2022-09-16T04:32:01;25.43;;;20.40;;
8040;SDS011;4063;48.140;10.250;2022-09-16T04:34:27;28.00;;;20.17;;
8040;SDS011;4063;48.140;10.250;2022-09-16T04:36:52;25.20;;;21.10;;
8040;SDS011;4063;48.140;10.250;2022-09-16T04:39:18;29.93;;;21.47;;
8040;SDS011;4063;48.140;10.250;2022-09-16T04:41:45;23.83;;;19.88;;
8040;SDS011;4063;48.140;10.250;2022-09-16T04:44:11;26.30;;;20.90;;
8040;SDS011;4063;48.140;10.250;2022-09-16T04:46:37;20.93;;;18.30;;
8040;SDS011;4063;48.140;10.250;2022-09-16T04:49:03;24.70;;;20.10;;
8040;SDS011;4063;48.140;10.250;2022-09-16T04:51:29;26.33;;;21.13;;
8040;SDS011;4063;48.140;10.250;2022-09-16T04:53:56;30.63;;;23.97;;
8040;SDS011;4063;48.140;10.250;2022-09-16T04:56:23;30.55;;;25.52;;
8040;SDS011;4063;48.140;10.250;2022-09-16T04:58:51;32.47;;;25.85;;
8040;SDS011;4063;48.140;10.250;2022-09-16T05:01:18;32.93;;;22.70;;
8040;SDS011;4063;48.140;10.250;2022-09-16T05:03:46;25.53;;;21.73;;
8040;SDS011;4063;48.140;10.250;2022-09-16T05:06:13;23.58;;;19.90;;
8040;SDS011;4063;48.140;10.250;2022-09-16T05:08:39;24.00;;;20.13;;
8040;SDS011;4063;48.140;10.250;2022-09-16T05:11:10;23.50;;;18.73;;
8040;SDS011;4063;48.140;10.250;2022-09-16T05:13:36;24.20;;;19.53;;
8040;SDS011;4063;48.140;10.250;2022-09-16T05:16:03;21.77;;;18.92;;
8040;SDS011;4063;48.140;10.250;2022-09-16T05:18:30;22.45;;;19.35;;
8040;SDS011;4063;48.140;10.250;2022-09-16T05:20:57;23.27;;;19.07;;
8040;SDS011;4063;48.140;10.250;2022-09-16T05:23:23;23.20;;;19.10;;
8040;SDS011;4063;48.140;10.250;2022-09-16T05:25:49;23.75;;;19.38;;
8040;SDS011;4063;48.140;10.250;2022-09-16T05:28:15;23.53;;;18.93;;
8040;SDS011;4063;48.140;10.250;2022-09-16T05:30:41;20.73;;;18.00;;
8040;SDS011;4063;48.140;10.250;2022-09-16T05:33:07;25.48;;;19.33;;
8040;SDS011;4063;48.140;10.250;2022-09-16T05:35:33;26.77;;;19.05;;
8040;SDS011;4063;48.140;10.250;2022-09-16T05:37:59;23.40;;;18.50;;
8040;SDS011;4063;48.140;10.250;2022-09-16T05:40:25;25.02;;;19.40;;
8040;SDS011;4063;48.140;10.250;2022-09-16T05:42:51;20.17;;;18.10;;
8040;SDS011;4063;48.140;10.250;2022-09-16T05:45:17;20.70;;;18.48;;
8040;SDS011;4063;48.140;10.250;2022-09-16T05:47:49;20.92;;;18.73;;
8040;SDS011;4063;48.140;10.250;2022-09-16T05:50:15;21.92;;;18.70;;
8040;SDS011;4063;48.140;10.250;2022-09-16T05:52:41;20.67;;;18.48;;
8040;SDS011;4063;48.140;10.250;2022-09-16T05:55:07;21.75;;;19.05;;
8040;SDS011;4063;48.140;10.250;2022-09-16T05:57:33;20.50;;;18.50;;
8040;SDS011;4063;48.140;10.250;2022-09-16T05:59:59;25.65;;;18.50;;
8040;SDS011;4063;48.140;10.250;2022-09-16T06:02:25;26.80;;;18.58;;
8040;SDS011;4063;48.140;10.250;2022-09-16T06:04:51;22.38;;;18.73;;
8040;SDS011;4063;48.140;10.250;2022-09-16T06:07:17;20.88;;;18.23;;
8040;SDS011;4063;48.140;10.250;2022-09-16T06:09:43;23.20;;;18.67;;
8040;SDS011;4063;48.140;10.250;2022-09-16T06:12:09;19.27;;;17.27;;
8040;SDS011;4063;48.140;10.250;2022-09-16T06:14:35;24.05;;;18.70;;
8040;SDS011;4063;48.140;10.250;2022-09-16T06:17:01;20.45;;;16.95;;
8040;SDS011;4063;48.140;10.250;2022-09-16T06:19:27;22.77;;;18.60;;
8040;SDS011;4063;48.140;10.250;2022-09-16T06:21:54;21.35;;;17.85;;
8040;SDS011;4063;48.140;10.250;2022-09-16T06:24:21;20.98;;;17.23;;
8040;SDS011;4063;48.140;10.250;2022-09-16T06:26:47;18.75;;;16.77;;
8040;SDS011;4063;48.140;10.250;2022-09-16T06:29:13;21.63;;;16.38;;
8040;SDS011;4063;48.140;10.250;2022-09-16T06:31:40;16.80;;;14.88;;
8040;SDS011;4063;48.140;10.250;2022-09-16T06:34:09;16.48;;;14.60;;
8040;SDS011;4063;48.140;10.250;2022-09-16T06:36:37;15.73;;;14.13;;
8040;SDS011;4063;48.140;10.250;2022-09-16T06:39:03;14.05;;;12.70;;
8040;SDS011;4063;48.140;10.250;2022-09-16T06:41:30;16.00;;;13.70;;
8040;SDS011;4063;48.140;10.250;2022-09-16T06:43:57;16.00;;;13.63;;
8040;SDS011;4063;48.140;10.250;2022-09-16T06:46:24;15.38;;;13.07;;
8040;SDS011;4063;48.140;10.250;2022-09-16T06:48:51;13.25;;;12.00;;
8040;SDS011;4063;48.140;10.250;2022-09-16T06:51:23;14.35;;;12.93;;
8040;SDS011;4063;48.140;10.250;2022-09-16T06:53:50;17.75;;;13.75;;
8040;SDS011;4063;48.140;10.250;2022-09-16T06:56:17;13.30;;;12.02;;
8040;SDS011;4063;48.140;10.250;2022-09-16T06:58:44;14.15;;;11.93;;
8040;SDS011;4063;48.140;10.250;2022-09-16T07:01:15;14.82;;;12.25;;
8040;SDS011;4063;48.140;10.250;2022-09-16T07:03:42;13.15;;;11.50;;
8040;SDS011;4063;48.140;10.250;2022-09-16T07:06:09;14.20;;;11.90;;
8040;SDS011;4063;48.140;10.250;2022-09-16T07:08:36;12.63;;;11.52;;
8040;SDS011;4063;48.140;10.250;2022-09-16T07:11:06;12.18;;;11.07;;
8040;SDS011;4063;48.140;10.250;2022-09-16T07:13:32;12.48;;;11.18;;
8040;SDS011;4063;48.140;10.250;2022-09-16T07:15:59;11.88;;;10.68;;
8040;SDS011;4063;48.140;10.250;2022-09-16T07:18:25;11.63;;;10.27;;
8040;SDS011;4063;48.140;10.250;2022-09-16T07:20:51;10.93;;;9.90;;
8040;SDS011;4063;48.140;10.250;2022-09-16T07:23:17;12.32;;;10.90;;
8040;SDS011;4063;48.140;10.250;2022-09-16T07:25:44;12.85;;;11.13;;
8040;SDS011;4063;48.140;10.250;2022-09-16T07:28:09;12.48;;;11.18;;
8040;SDS011;4063;48.140;10.250;2022-09-16T07:30:35;12.88;;;11.05;;
8040;SDS011;4063;48.140;10.250;2022-09-16T07:33:01;17.50;;;11.85;;
8040;SDS011;4063;48.140;10.250;2022-09-16T07:35:27;14.23;;;11.40;;
8040;SDS011;4063;48.140;10.250;2022-09-16T07:37:53;12.00;;;10.73;;
8040;SDS011;4063;48.140;10.250;2022-09-16T07:40:19;14.13;;;10.85;;
8040;SDS011;4063;48.140;10.250;2022-09-16T07:42:46;11.27;;;10.15;;
8040;SDS011;4063;48.140;10.250;2022-09-16T07:45:12;11.30;;;10.10;;
8040;SDS011;4063;48.140;10.250;2022-09-16T07:47:38;11.27;;;9.90;;
8040;SDS011;4063;48.140;10.250;2022-09-16T07:50:04;10.63;;;9.57;;
8040;SDS011;4063;48.140;10.250;2022-09-16T07:52:30;11.60;;;9.55;;
8040;SDS011;4063;48.140;10.250;2022-09-16T07:54:56;9.85;;;8.85;;
8040;SDS011;4063;48.140;10.250;2022-09-16T07:57:22;12.63;;;9.10;;
8040;SDS011;4063;48.140;10.250;2022-09-16T07:59:48;12.10;;;8.82;;
8040;SDS011;4063;48.140;10.250;2022-09-16T08:02:14;10.70;;;9.60;;
8040;SDS011;4063;48.140;10.250;2022-09-16T08:04:40;12.73;;;9.70;;
8040;SDS011;4063;48.140;10.250;2022-09-16T08:07:06;13.55;;;10.25;;
8040;SDS011;4063;48.140;10.250;2022-09-16T08:09:32;12.85;;;10.82;;
8040;SDS011;4063;48.140;10.250;2022-09-16T08:11:58;11.85;;;10.73;;
8040;SDS011;4063;48.140;10.250;2022-09-16T08:14:26;14.73;;;10.85;;
8040;SDS011;4063;48.140;10.250;2022-09-16T08:16:52;12.35;;;11.25;;
8040;SDS011;4063;48.140;10.250;2022-09-16T08:19:18;11.32;;;10.20;;
8040;SDS011;4063;48.140;10.250;2022-09-16T08:21:44;13.00;;;11.13;;
8040;SDS011;4063;48.140;10.250;2022-09-16T08:24:11;12.30;;;11.10;;
8040;SDS011;4063;48.140;10.250;2022-09-16T08:26:36;12.68;;;11.38;;
8040;SDS011;4063;48.140;10.250;2022-09-16T08:29:03;13.77;;;11.55;;
8040;SDS011;4063;48.140;10.250;2022-09-16T08:31:29;14.18;;;12.50;;
8040;SDS011;4063;48.140;10.250;2022-09-16T08:33:55;14.65;;;13.05;;
8040;SDS011;4063;48.140;10.250;2022-09-16T08:36:22;16.02;;;13.45;;
8040;SDS011;4063;48.140;10.250;2022-09-16T08:38:53;15.45;;;13.90;;
8040;SDS011;4063;48.140;10.250;2022-09-16T08:41:30;14.70;;;13.27;;
8040;SDS011;4063;48.140;10.250;2022-09-16T08:44:08;19.33;;;14.65;;
8040;SDS011;4063;48.140;10.250;2022-09-16T08:46:41;16.92;;;15.23;;
8040;SDS011;4063;48.140;10.250;2022-09-16T08:49:16;16.80;;;15.07;;
8040;SDS011;4063;48.140;10.250;2022-09-16T08:51:44;19.40;;;15.27;;
8040;SDS011;4063;48.140;10.250;2022-09-16T08:54:17;17.38;;;15.45;;
8040;SDS011;4063;48.140;10.250;2022-09-16T08:56:46;18.58;;;15.07;;
8040;SDS011;4063;48.140;10.250;2022-09-16T08:59:14;16.48;;;14.70;;
8040;SDS011;4063;48.140;10.250;2022-09-16T09:04:28;16.45;;;14.90;;
8040;SDS011;4063;48.140;10.250;2022-09-16T09:07:39;18.30;;;16.67;;
8040;SDS011;4063;48.140;10.250;2022-09-16T09:12:24;16.15;;;14.63;;
8040;SDS011;4063;48.140;10.250;2022-09-16T09:31:16;14.57;;;13.27;;
8040;SDS011;4063;48.140;10.250;2022-09-16T09:34:27;14.52;;;11.88;;
8040;SDS011;4063;48.140;10.250;2022-09-16T09:36:35;14.98;;;12.63;;
8040;SDS011;4063;48.140;10.250;2022-09-16T09:39:47;19.80;;;13.13;;
8040;SDS011;4063;48.140;10.250;2022-09-16T09:41:57;17.20;;;14.45;;
8040;SDS011;4063;48.140;10.250;2022-09-16T09:47:06;17.27;;;14.90;;
8040;SDS011;4063;48.140;10.250;2022-09-16T09:49:34;16.05;;;14.55;;
8040;SDS011;4063;48.140;10.250;2022-09-16T09:52:13;18.80;;;16.00;;
8040;SDS011;4063;48.140;10.250;2022-09-16T09:54:40;17.13;;;15.35;;
8040;SDS011;4063;48.140;10.250;2022-09-16T09:57:15;16.90;;;15.20;;
8040;SDS011;4063;48.140;10.250;2022-09-16T10:02:14;11.35;;;9.75;;
8040;SDS011;4063;48.140;10.250;2022-09-16T10:04:41;9.20;;;8.23;;
8040;SDS011;4063;48.140;10.250;2022-09-16T10:07:07;11.93;;;8.18;;
8040;SDS011;4063;48.140;10.250;2022-09-16T10:09:34;13.43;;;10.77;;
8040;SDS011;4063;48.140;10.250;2022-09-16T10:12:01;9.97;;;7.83;;
8040;SDS011;4063;48.140;10.250;2022-09-16T10:14:29;8.00;;;6.43;;
8040;SDS011;4063;48.140;10.250;2022-09-16T10:16:55;7.22;;;5.68;;
8040;SDS011;4063;48.140;10.250;2022-09-16T10:19:24;0.20;;;0.20;;
8040;SDS011;4063;48.140;10.250;2022-09-16T10:21:55;0.20;;;0.20;;
8040;SDS011;4063;48.140;10.250;2022-09-16T10:26:54;0.30;;;0.30;;
8040;SDS011;4063;48.140;10.250;2022-09-16T10:29:20;0.10;;;0.10;;
8040;SDS011;4063;48.140;10.250;2022-09-16T10:31:46;0.20;;;0.20;;
8040;SDS011;4063;48.140;10.250;2022-09-16T10:37:03;0.20;;;0.20;;
8040;SDS011;4063;48.140;10.250;2022-09-16T10:39:39;0.20;;;0.20;;
8040;SDS011;4063;48.140;10.250;2022-09-16T10:42:17;0.10;;;0.10;;
8040;SDS011;4063;48.140;10.250;2022-09-16T10:44:44;0.10;;;0.10;;
8040;SDS011;4063;48.140;10.250;2022-09-16T10:47:16;1.67;;;1.60;;
8040;SDS011;4063;48.140;10.250;2022-09-16T10:49:47;0.20;;;0.20;;
8040;SDS011;4063;48.140;10.250;2022-09-16T10:54:40;0.20;;;0.20;;
8040;SDS011;4063;48.140;10.250;2022-09-16T10:59:58;0.30;;;0.30;;
8040;SDS011;4063;48.140;10.250;2022-09-16T11:05:05;0.20;;;0.20;;
8040;SDS011;4063;48.140;10.250;2022-09-16T11:10:10;0.20;;;0.20;;
8040;SDS011;4063;48.140;10.250;2022-09-16T11:17:56;0.20;;;0.20;;
8040;SDS011;4063;48.140;10.250;2022-09-16T11:25:43;0.10;;;0.10;;
8040;SDS011;4063;48.140;10.250;2022-09-16T11:30:58;0.20;;;0.20;;
8040;SDS011;4063;48.140;10.250;2022-09-16T11:33:36;0.20;;;0.20;;
8040;SDS011;4063;48.140;10.250;2022-09-16T11:36:07;0.20;;;0.20;;
8040;SDS011;4063;48.140;10.250;2022-09-16T11:38:42;0.10;;;0.10;;
8040;SDS011;4063;48.140;10.250;2022-09-16T11:41:23;0.17;;;0.17;;
8040;SDS011;4063;48.140;10.250;2022-09-16T11:57:03;0.17;;;0.17;;
8040;SDS011;4063;48.140;10.250;2022-09-16T11:59:43;0.30;;;0.30;;
8040;SDS011;4063;48.140;10.250;2022-09-16T12:04:40;0.30;;;0.30;;
8040;SDS011;4063;48.140;10.250;2022-09-16T12:09:48;0.20;;;0.20;;
8040;SDS011;4063;48.140;10.250;2022-09-16T12:12:18;0.20;;;0.20;;
8040;SDS011;4063;48.140;10.250;2022-09-16T12:14:56;0.43;;;0.43;;
8040;SDS011;4063;48.140;10.250;2022-09-16T12:17:28;0.10;;;0.10;;
8040;SDS011;4063;48.140;10.250;2022-09-16T12:19:57;0.20;;;0.20;;
8040;SDS011;4063;48.140;10.250;2022-09-16T12:22:39;0.20;;;0.20;;
8040;SDS011;4063;48.140;10.250;2022-09-16T12:25:16;0.10;;;0.10;;
8040;SDS011;4063;48.140;10.250;2022-09-16T12:27:48;0.20;;;0.20;;
8040;SDS011;4063;48.140;10.250;2022-09-16T12:30:20;0.17;;;0.17;;
8040;SDS011;4063;48.140;10.250;2022-09-16T12:37:53;0.17;;;0.17;;
8040;SDS011;4063;48.140;10.250;2022-09-16T12:40:20;0.10;;;0.10;;
8040;SDS011;4063;48.140;10.250;2022-09-16T12:43:30;0.20;;;0.20;;
8040;SDS011;4063;48.140;10.250;2022-09-16T12:56:08;0.40;;;0.40;;
8040;SDS011;4063;48.140;10.250;2022-09-16T12:58:43;0.20;;;0.20;;
8040;SDS011;4063;48.140;10.250;2022-09-16T13:01:26;0.20;;;0.20;;
8040;SDS011;4063;48.140;10.250;2022-09-16T13:04:37;0.20;;;0.20;;
8040;SDS011;4063;48.140;10.250;2022-09-16T13:06:47;0.20;;;0.20;;
8040;SDS011;4063;48.140;10.250;2022-09-16T13:09:18;0.10;;;0.10;;
8040;SDS011;4063;48.140;10.250;2022-09-16T13:11:59;0.20;;;0.20;;
8040;SDS011;4063;48.140;10.250;2022-09-16T13:14:28;0.20;;;0.20;;
8040;SDS011;4063;48.140;10.250;2022-09-16T13:16:56;0.20;;;0.20;;
8040;SDS011;4063;48.140;10.250;2022-09-16T13:19:33;0.20;;;0.20;;
8040;SDS011;4063;48.140;10.250;2022-09-16T13:22:25;0.20;;;0.20;;
8040;SDS011;4063;48.140;10.250;2022-09-16T13:27:37;0.17;;;0.17;;
8040;SDS011;4063;48.140;10.250;2022-09-16T13:32:36;0.10;;;0.10;;
8040;SDS011;4063;48.140;10.250;2022-09-16T13:35:04;0.10;;;0.10;;
8040;SDS011;4063;48.140;10.250;2022-09-16T13:37:46;0.10;;;0.10;;
8040;SDS011;4063;48.140;10.250;2022-09-16T13:40:20;0.20;;;0.20;;
8040;SDS011;4063;48.140;10.250;2022-09-16T13:42:46;0.38;;;0.38;;
8040;SDS011;4063;48.140;10.250;2022-09-16T13:45:35;0.20;;;0.20;;
8040;SDS011;4063;48.140;10.250;2022-09-16T13:48:04;0.10;;;0.10;;
8040;SDS011;4063;48.140;10.250;2022-09-16T13:50:33;0.20;;;0.20;;
8040;SDS011;4063;48.140;10.250;2022-09-16T13:53:07;0.20;;;0.20;;
8040;SDS011;4063;48.140;10.250;2022-09-16T13:55:34;0.15;;;0.15;;
8040;SDS011;4063;48.140;10.250;2022-09-16T14:00:49;0.10;;;0.10;;
8040;SDS011;4063;48.140;10.250;2022-09-16T14:09:14;0.10;;;0.10;;
8040;SDS011;4063;48.140;10.250;2022-09-16T14:11:35;0.28;;;0.28;;
8040;SDS011;4063;48.140;10.250;2022-09-16T14:14:05;0.20;;;0.20;;
8040;SDS011;4063;48.140;10.250;2022-09-16T14:16:33;0.30;;;0.30;;
8040;SDS011;4063;48.140;10.250;2022-09-16T14:21:29;0.10;;;0.10;;
8040;SDS011;4063;48.140;10.250;2022-09-16T14:24:05;0.10;;;0.10;;
8040;SDS011;4063;48.140;10.250;2022-09-16T14:26:32;0.10;;;0.10;;
8040;SDS011;4063;48.140;10.250;2022-09-16T14:29:02;7.18;;;6.30;;
8040;SDS011;4063;48.140;10.250;2022-09-16T14:31:29;6.28;;;5.78;;
8040;SDS011;4063;48.140;10.250;2022-09-16T14:33:56;6.05;;;5.53;;
8040;SDS011;4063;48.140;10.250;2022-09-16T14:36:26;5.30;;;4.80;;
8040;SDS011;4063;48.140;10.250;2022-09-16T14:38:54;5.80;;;5.20;;
8040;SDS011;4063;48.140;10.250;2022-09-16T14:41:28;5.80;;;5.03;;
8040;SDS011;4063;48.140;10.250;2022-09-16T14:43:56;5.45;;;4.95;;
8040;SDS011;4063;48.140;10.250;2022-09-16T14:46:24;7.13;;;5.00;;
8040;SDS011;4063;48.140;10.250;2022-09-16T14:48:50;8.98;;;5.45;;
8040;SDS011;4063;48.140;10.250;2022-09-16T14:51:22;135.20;;;97.07;;
8040;SDS011;4063;48.140;10.250;2022-09-16T14:53:56;6.60;;;5.65;;
8040;SDS011;4063;48.140;10.250;2022-09-16T14:56:22;6.32;;;5.72;;
8040;SDS011;4063;48.140;10.250;2022-09-16T14:58:49;5.90;;;5.40;;
8040;SDS011;4063;48.140;10.250;2022-09-16T15:01:17;8.82;;;7.20;;
8040;SDS011;4063;48.140;10.250;2022-09-16T15:06:15;5.95;;;5.32;;
8040;SDS011;4063;48.140;10.250;2022-09-16T15:08:50;6.72;;;5.30;;
8040;SDS011;4063;48.140;10.250;2022-09-16T15:11:18;6.45;;;5.85;;
8040;SDS011;4063;48.140;10.250;2022-09-16T15:13:46;6.38;;;5.63;;
8040;SDS011;4063;48.140;10.250;2022-09-16T15:16:16;9.38;;;5.78;;
8040;SDS011;4063;48.140;10.250;2022-09-16T15:18:51;6.40;;;5.75;;
8040;SDS011;4063;48.140;10.250;2022-09-16T15:23:45;8.10;;;5.53;;
8040;SDS011;4063;48.140;10.250;2022-09-16T15:26:15;8.68;;;5.35;;
8040;SDS011;4063;48.140;10.250;2022-09-16T15:28:52;8.15;;;5.85;;
8040;SDS011;4063;48.140;10.250;2022-09-16T15:31:25;8.30;;;5.63;;
8040;SDS011;4063;48.140;10.250;2022-09-16T15:33:52;5.53;;;5.03;;
8040;SDS011;4063;48.140;10.250;2022-09-16T15:36:39;6.75;;;4.30;;
8040;SDS011;4063;48.140;10.250;2022-09-16T15:39:04;5.90;;;4.10;;
8040;SDS011;4063;48.140;10.250;2022-09-16T15:41:31;9.10;;;4.32;;
8040;SDS011;4063;48.140;10.250;2022-09-16T15:43:57;4.57;;;3.65;;
8040;SDS011;4063;48.140;10.250;2022-09-16T15:46:24;6.63;;;3.90;;
8040;SDS011;4063;48.140;10.250;2022-09-16T15:48:51;6.22;;;4.32;;
8040;SDS011;4063;48.140;10.250;2022-09-16T15:53:45;6.68;;;4.57;;
8040;SDS011;4063;48.140;10.250;2022-09-16T15:56:16;7.80;;;4.07;;
8040;SDS011;4063;48.140;10.250;2022-09-16T15:58:45;9.18;;;3.70;;
8040;SDS011;4063;48.140;10.250;2022-09-16T16:06:03;4.45;;;3.40;;
8040;SDS011;4063;48.140;10.250;2022-09-16T16:08:41;6.37;;;3.80;;
8040;SDS011;4063;48.140;10.250;2022-09-16T16:11:09;5.60;;;3.63;;
8040;SDS011;4063;48.140;10.250;2022-09-16T16:13:35;4.07;;;3.60;;
8040;SDS011;4063;48.140;10.250;2022-09-16T16:16:02;6.82;;;3.60;;
8040;SDS011;4063;48.140;10.250;2022-09-16T16:18:30;4.13;;;3.40;;
8040;SDS011;4063;48.140;10.250;2022-09-16T16:20:56;6.90;;;3.77;;
8040;SDS011;4063;48.140;10.250;2022-09-16T16:23:22;6.50;;;3.50;;
8040;SDS011;4063;48.140;10.250;2022-09-16T16:25:48;6.77;;;3.50;;
8040;SDS011;4063;48.140;10.250;2022-09-16T16:28:14;4.37;;;3.43;;
8040;SDS011;4063;48.140;10.250;2022-09-16T16:30:40;6.57;;;3.53;;
8040;SDS011;4063;48.140;10.250;2022-09-16T16:33:07;7.10;;;3.63;;
8040;SDS011;4063;48.140;10.250;2022-09-16T16:35:33;6.13;;;3.67;;
8040;SDS011;4063;48.140;10.250;2022-09-16T16:37:59;5.30;;;3.93;;
8040;SDS011;4063;48.140;10.250;2022-09-16T16:40:25;6.30;;;3.80;;
8040;SDS011;4063;48.140;10.250;2022-09-16T16:42:51;5.47;;;3.63;;
8040;SDS011;4063;48.140;10.250;2022-09-16T16:45:17;6.43;;;3.90;;
8040;SDS011;4063;48.140;10.250;2022-09-16T16:47:43;5.97;;;3.80;;
8040;SDS011;4063;48.140;10.250;2022-09-16T16:50:10;6.50;;;3.30;;
8040;SDS011;4063;48.140;10.250;2022-09-16T16:52:36;6.57;;;3.40;;
8040;SDS011;4063;48.140;10.250;2022-09-16T16:55:02;7.20;;;3.03;;
8040;SDS011;4063;48.140;10.250;2022-09-16T16:57:28;5.07;;;3.00;;
8040;SDS011;4063;48.140;10.250;2022-09-16T16:59:54;4.83;;;3.10;;
8040;SDS011;4063;48.140;10.250;2022-09-16T17:02:20;4.63;;;3.50;;
8040;SDS011;4063;48.140;10.250;2022-09-16T17:04:46;4.10;;;3.70;;
8040;SDS011;4063;48.140;10.250;2022-09-16T17:07:12;4.60;;;4.13;;
8040;SDS011;4063;48.140;10.250;2022-09-16T17:09:38;5.83;;;4.20;;
8040;SDS011;4063;48.140;10.250;2022-09-16T17:12:05;4.57;;;4.17;;
8040;SDS011;4063;48.140;10.250;2022-09-16T17:14:33;6.97;;;4.30;;
8040;SDS011;4063;48.140;10.250;2022-09-16T17:16:59;6.40;;;4.90;;
8040;SDS011;4063;48.140;10.250;2022-09-16T17:19:26;6.83;;;4.97;;
8040;SDS011;4063;48.140;10.250;2022-09-16T17:21:53;7.27;;;5.23;;
8040;SDS011;4063;48.140;10.250;2022-09-16T17:24:20;6.67;;;5.53;;
8040;SDS011;4063;48.140;10.250;2022-09-16T17:26:46;10.30;;;9.30;;
8040;SDS011;4063;48.140;10.250;2022-09-16T17:29:13;9.30;;;8.40;;